Time;durP1;ratioP1;P1;durP2;ratioP2;P2;SDS_P1;SDS_P2;PMS_P1;PMS_P2;Temp;Humidity;BMP_temperature;BMP_pressure;BME280_temperature;BME280_humidity;BME280_pressure;Samples;Min_cycle;Max_cycle;Signal;HPM_P1;HPM_P2
2022/10/08 00:00:52;;;;;;;23.63;17.33;;;;;;;;;;4900673;29;20080;-89
2022/10/08 00:03:19;;;;;;;27.77;19.73;;;;;;;;;;4900764;29;20039;-88
2022/10/08 00:06:02;;;;;;;22.85;16.15;;;;;;;;;;4900915;29;20063;-89
2022/10/08 00:08:29;;;;;;;24.92;18.52;;;;;;;;;;4901010;29;20088;-89
2022/10/08 00:10:56;;;;;;;27.60;18.27;;;;;;;;;;4902859;29;20134;-88
2022/10/08 00:13:23;;;;;;;25.13;19.25;;;;;;;;;;4903941;29;20039;-79
2022/10/08 00:15:49;;;;;;;23.60;18.15;;;;;;;;;;4904075;29;20039;-77
2022/10/08 00:18:19;;;;;;;26.48;19.73;;;;;;;;;;4903817;29;20039;-89
2022/10/08 00:20:45;;;;;;;27.08;19.50;;;;;;;;;;4904702;29;20059;-88
2022/10/08 00:23:12;;;;;;;27.85;20.63;;;;;;;;;;4903933;29;20091;-78
2022/10/08 00:25:41;;;;;;;27.27;19.63;;;;;;;;;;4904083;29;20430;-88
2022/10/08 00:28:08;;;;;;;35.03;23.55;;;;;;;;;;4903741;29;20024;-79
2022/10/08 00:30:38;;;;;;;27.65;20.85;;;;;;;;;;4904141;29;20143;-79
2022/10/08 00:33:05;;;;;;;29.88;21.67;;;;;;;;;;4905815;29;20020;-88
2022/10/08 00:35:36;;;;;;;35.22;23.67;;;;;;;;;;4907151;29;20039;-88
2022/10/08 00:38:02;;;;;;;40.88;28.00;;;;;;;;;;4903702;29;20088;-89
2022/10/08 00:40:28;;;;;;;46.67;30.92;;;;;;;;;;4903901;29;20028;-89
2022/10/08 00:42:54;;;;;;;42.42;29.40;;;;;;;;;;4903665;29;20088;-88
2022/10/08 00:45:20;;;;;;;38.10;26.58;;;;;;;;;;4903190;29;20474;-89
2022/10/08 00:47:51;;;;;;;31.80;21.45;;;;;;;;;;4903792;29;20032;-89
2022/10/08 00:56:30;;;;;;;28.48;19.25;;;;;;;;;;4938041;23;20084;-76
2022/10/08 00:58:56;;;;;;;23.02;17.90;;;;;;;;;;4919733;29;20043;-86
2022/10/08 01:01:22;;;;;;;24.80;18.30;;;;;;;;;;4902596;29;20028;-78
2022/10/08 01:03:48;;;;;;;26.88;20.83;;;;;;;;;;4903051;29;20385;-87
2022/10/08 01:06:21;;;;;;;21.10;16.55;;;;;;;;;;4902607;29;20047;-87
2022/10/08 01:09:16;;;;;;;24.08;17.33;;;;;;;;;;4902356;29;20067;-87
2022/10/08 01:11:46;;;;;;;27.55;20.30;;;;;;;;;;4891237;29;20103;-89
2022/10/08 01:14:19;;;;;;;26.10;18.02;;;;;;;;;;4902433;29;20028;-88
2022/10/08 01:16:49;;;;;;;23.83;16.60;;;;;;;;;;4902966;29;20033;-87
2022/10/08 01:19:18;;;;;;;21.65;15.25;;;;;;;;;;4902437;29;20036;-89
2022/10/08 01:21:50;;;;;;;26.42;19.70;;;;;;;;;;4901758;29;20028;-89
2022/10/08 01:25:31;;;;;;;27.92;18.52;;;;;;;;;;4907486;29;20504;-89
2022/10/08 01:27:40;;;;;;;28.20;20.33;;;;;;;;;;4919759;29;20489;-79
2022/10/08 01:30:08;;;;;;;27.90;18.70;;;;;;;;;;4890822;29;20545;-78
2022/10/08 01:32:38;;;;;;;25.65;18.77;;;;;;;;;;4906394;29;20020;-78
2022/10/08 01:35:15;;;;;;;25.40;18.67;;;;;;;;;;4902651;29;20029;-88
2022/10/08 01:37:42;;;;;;;29.08;20.33;;;;;;;;;;4904062;29;20389;-89
2022/10/08 01:40:13;;;;;;;26.55;19.75;;;;;;;;;;4902720;29;20048;-89
2022/10/08 01:42:40;;;;;;;27.80;19.00;;;;;;;;;;4902685;29;20134;-89
2022/10/08 01:45:09;;;;;;;26.88;17.50;;;;;;;;;;4902130;29;20028;-90
2022/10/08 01:47:39;;;;;;;23.52;17.27;;;;;;;;;;4902318;29;20056;-78
2022/10/08 01:50:17;;;;;;;24.85;18.80;;;;;;;;;;4902538;29;20111;-79
2022/10/08 01:52:46;;;;;;;23.17;17.77;;;;;;;;;;4901554;29;20039;-79
2022/10/08 01:55:31;;;;;;;21.92;16.83;;;;;;;;;;4902443;29;20406;-88
2022/10/08 01:58:00;;;;;;;23.10;17.60;;;;;;;;;;4902608;29;20379;-79
2022/10/08 02:00:27;;;;;;;21.20;15.80;;;;;;;;;;4903134;29;20034;-89
2022/10/08 02:02:54;;;;;;;25.08;18.15;;;;;;;;;;4902090;29;20054;-89
2022/10/08 02:05:22;;;;;;;24.73;17.88;;;;;;;;;;4902040;29;20031;-89
2022/10/08 02:07:49;;;;;;;23.58;18.05;;;;;;;;;;4902361;29;20076;-79
2022/10/08 02:10:17;;;;;;;20.52;15.18;;;;;;;;;;4902169;29;20040;-89
2022/10/08 02:12:43;;;;;;;21.60;15.00;;;;;;;;;;4902202;29;20394;-88
2022/10/08 02:15:25;;;;;;;25.65;17.80;;;;;;;;;;4902269;29;20024;-78
2022/10/08 02:18:07;;;;;;;20.85;15.52;;;;;;;;;;4901936;29;20028;-89
2022/10/08 02:21:02;;;;;;;22.45;16.58;;;;;;;;;;4902157;29;20024;-89
2022/10/08 02:23:30;;;;;;;24.75;16.75;;;;;;;;;;4889893;29;20485;-89
2022/10/08 02:25:56;;;;;;;27.67;17.83;;;;;;;;;;4905614;29;20036;-88
2022/10/08 02:28:42;;;;;;;22.85;16.80;;;;;;;;;;4919475;29;20038;-80
2022/10/08 02:36:40;;;;;;;20.35;14.38;;;;;;;;;;4969043;23;20645;-78
2022/10/08 02:39:07;;;;;;;21.58;15.77;;;;;;;;;;4943055;29;20032;-88
2022/10/08 02:41:38;;;;;;;24.13;15.82;;;;;;;;;;4940222;29;20031;-89
2022/10/08 02:44:06;;;;;;;21.15;15.25;;;;;;;;;;4939379;29;20023;-88
2022/10/08 02:46:35;;;;;;;28.23;18.30;;;;;;;;;;4939669;29;20484;-88
2022/10/08 02:49:04;;;;;;;19.80;14.43;;;;;;;;;;4938812;29;20131;-88
2022/10/08 02:51:32;;;;;;;17.52;13.75;;;;;;;;;;4939639;29;20027;-89
2022/10/08 02:53:58;;;;;;;20.58;14.68;;;;;;;;;;4938959;29;20032;-79
2022/10/08 02:56:27;;;;;;;20.02;14.15;;;;;;;;;;4939533;29;20472;-89
2022/10/08 02:58:54;;;;;;;18.80;15.32;;;;;;;;;;4939630;29;20038;-89
2022/10/08 03:01:39;;;;;;;22.75;16.02;;;;;;;;;;4938816;29;20055;-79
2022/10/08 03:04:10;;;;;;;21.58;15.10;;;;;;;;;;4956138;29;20507;-89
2022/10/08 03:06:36;;;;;;;24.70;17.80;;;;;;;;;;4938451;29;20416;-79
2022/10/08 03:09:05;;;;;;;21.25;15.00;;;;;;;;;;4938239;29;20036;-78
2022/10/08 03:11:32;;;;;;;21.98;15.73;;;;;;;;;;4938773;29;20042;-89
2022/10/08 03:13:59;;;;;;;23.40;16.90;;;;;;;;;;4939189;29;20023;-87
2022/10/08 03:16:28;;;;;;;23.73;16.02;;;;;;;;;;4938908;29;20046;-89
2022/10/08 03:18:57;;;;;;;24.30;16.67;;;;;;;;;;4939753;29;20027;-89
2022/10/08 03:21:24;;;;;;;29.67;19.45;;;;;;;;;;4956457;29;20468;-89
2022/10/08 03:23:50;;;;;;;31.42;20.40;;;;;;;;;;4938661;29;20030;-89
2022/10/08 03:26:17;;;;;;;38.00;24.33;;;;;;;;;;4939250;29;20031;-89
2022/10/08 03:28:43;;;;;;;24.90;17.40;;;;;;;;;;4938530;29;20118;-89
2022/10/08 03:31:10;;;;;;;21.17;15.55;;;;;;;;;;4938920;29;20503;-89
2022/10/08 03:33:36;;;;;;;21.50;15.07;;;;;;;;;;4938908;29;20028;-88
2022/10/08 03:36:02;;;;;;;23.50;16.90;;;;;;;;;;4938970;29;20114;-89
2022/10/08 03:38:31;;;;;;;27.13;18.15;;;;;;;;;;4939126;29;20425;-90
2022/10/08 03:40:58;;;;;;;20.75;15.00;;;;;;;;;;4939064;29;20054;-79
2022/10/08 03:43:29;;;;;;;22.73;14.32;;;;;;;;;;4938767;29;20059;-89
2022/10/08 03:45:55;;;;;;;28.48;15.77;;;;;;;;;;4940751;29;20477;-79
2022/10/08 03:48:22;;;;;;;18.77;14.13;;;;;;;;;;4942646;29;20541;-79
2022/10/08 03:50:53;;;;;;;23.70;15.90;;;;;;;;;;4959519;29;20031;-79
2022/10/08 03:53:20;;;;;;;17.67;13.73;;;;;;;;;;4942370;29;20031;-86
2022/10/08 03:55:46;;;;;;;19.48;14.95;;;;;;;;;;4942719;29;20110;-89
2022/10/08 03:58:12;;;;;;;21.67;15.57;;;;;;;;;;4941901;29;20093;-79
2022/10/08 04:00:39;;;;;;;23.17;15.50;;;;;;;;;;4941893;29;20035;-89
2022/10/08 04:03:05;;;;;;;26.08;18.02;;;;;;;;;;4942117;29;20117;-79
2022/10/08 04:05:31;;;;;;;24.92;18.17;;;;;;;;;;4959115;29;20105;-87
2022/10/08 04:07:58;;;;;;;18.20;14.00;;;;;;;;;;4959637;29;20524;-89
2022/10/08 04:10:24;;;;;;;20.95;15.25;;;;;;;;;;4958779;23;20078;-79
2022/10/08 04:12:50;;;;;;;19.63;13.85;;;;;;;;;;4941727;29;20477;-88
2022/10/08 04:15:17;;;;;;;20.38;15.20;;;;;;;;;;4941850;29;20495;-82
2022/10/08 04:17:43;;;;;;;21.98;14.52;;;;;;;;;;4942708;29;20027;-79
2022/10/08 04:20:09;;;;;;;27.02;16.45;;;;;;;;;;4941703;29;20548;-88
2022/10/08 04:22:35;;;;;;;24.38;17.08;;;;;;;;;;4941841;29;20480;-79
2022/10/08 04:25:01;;;;;;;24.10;16.85;;;;;;;;;;4958239;29;20086;-88
2022/10/08 04:27:27;;;;;;;26.35;16.80;;;;;;;;;;4940808;29;20027;-85
2022/10/08 04:29:53;;;;;;;22.38;15.73;;;;;;;;;;4941439;29;20039;-78
2022/10/08 04:32:19;;;;;;;28.17;15.35;;;;;;;;;;4958900;29;20020;-89
2022/10/08 04:34:45;;;;;;;29.20;18.65;;;;;;;;;;4941764;29;20035;-79
2022/10/08 04:37:12;;;;;;;22.52;15.63;;;;;;;;;;4942187;29;20027;-79
2022/10/08 04:39:38;;;;;;;16.88;13.18;;;;;;;;;;4942650;29;20066;-89
2022/10/08 04:42:04;;;;;;;23.77;15.55;;;;;;;;;;4947727;29;20058;-89
2022/10/08 04:44:30;;;;;;;20.40;15.13;;;;;;;;;;4942001;29;20038;-85
2022/10/08 04:46:56;;;;;;;18.45;14.38;;;;;;;;;;4941161;29;20452;-79
2022/10/08 04:49:23;;;;;;;21.10;14.68;;;;;;;;;;4940596;29;20126;-88
2022/10/08 04:51:49;;;;;;;21.77;15.15;;;;;;;;;;4942547;29;20393;-89
2022/10/08 04:54:15;;;;;;;17.90;13.45;;;;;;;;;;4941350;29;20027;-79
2022/10/08 04:56:41;;;;;;;19.98;14.57;;;;;;;;;;4940700;29;20545;-89
2022/10/08 04:59:07;;;;;;;23.17;16.02;;;;;;;;;;4941603;29;20500;-89
2022/10/08 05:01:34;;;;;;;22.20;16.42;;;;;;;;;;4941461;29;20028;-89
2022/10/08 05:04:00;;;;;;;29.73;18.20;;;;;;;;;;4941861;29;20027;-79
2022/10/08 05:06:27;;;;;;;20.80;15.98;;;;;;;;;;4940810;29;20058;-88
2022/10/08 05:08:54;;;;;;;24.48;17.90;;;;;;;;;;4941208;28;20392;-79
2022/10/08 05:11:22;;;;;;;24.30;18.25;;;;;;;;;;4948199;29;20091;-88
2022/10/08 05:13:49;;;;;;;24.77;16.58;;;;;;;;;;4942409;29;20497;-89
2022/10/08 05:16:18;;;;;;;22.00;15.55;;;;;;;;;;4940485;29;20038;-88
2022/10/08 05:18:45;;;;;;;25.60;18.17;;;;;;;;;;4941538;29;20031;-79
2022/10/08 05:21:12;;;;;;;27.63;18.10;;;;;;;;;;4940973;29;20373;-79
2022/10/08 05:23:41;;;;;;;22.98;16.05;;;;;;;;;;4940416;29;20031;-89
2022/10/08 05:26:21;;;;;;;22.88;16.73;;;;;;;;;;4940347;29;20058;-88
2022/10/08 05:28:47;;;;;;;28.35;19.40;;;;;;;;;;4940165;29;20041;-90
2022/10/08 05:31:14;;;;;;;24.50;17.88;;;;;;;;;;4940198;29;20075;-86
2022/10/08 05:33:40;;;;;;;20.48;14.77;;;;;;;;;;4940562;29;20484;-89
2022/10/08 05:36:07;;;;;;;22.35;15.13;;;;;;;;;;4941155;29;20038;-80
2022/10/08 05:38:34;;;;;;;21.83;15.50;;;;;;;;;;4940429;29;20031;-79
2022/10/08 05:41:10;;;;;;;24.50;16.10;;;;;;;;;;4939852;29;20023;-79
2022/10/08 05:43:36;;;;;;;27.60;18.48;;;;;;;;;;4940379;29;20039;-79
2022/10/08 05:48:53;;;;;;;20.45;14.55;;;;;;;;;;5173013;23;20122;-79
2022/10/08 05:51:21;;;;;;;22.50;16.42;;;;;;;;;;4957509;29;20039;-89
2022/10/08 05:53:48;;;;;;;20.65;15.50;;;;;;;;;;4940975;29;20114;-89
2022/10/08 05:56:16;;;;;;;23.67;16.15;;;;;;;;;;4957055;29;20043;-90
2022/10/08 05:58:42;;;;;;;21.92;15.15;;;;;;;;;;4939619;29;20069;-79
2022/10/08 06:01:15;;;;;;;25.13;17.08;;;;;;;;;;4956719;29;20477;-78
2022/10/08 06:03:42;;;;;;;16.85;12.80;;;;;;;;;;4940101;29;20066;-79
2022/10/08 06:06:11;;;;;;;17.55;13.52;;;;;;;;;;4938856;29;20062;-80
2022/10/08 06:08:37;;;;;;;15.45;12.77;;;;;;;;;;4955820;28;20042;-79
2022/10/08 06:11:04;;;;;;;17.33;13.70;;;;;;;;;;4943470;28;20049;-81
2022/10/08 06:13:30;;;;;;;13.82;11.50;;;;;;;;;;4948707;28;20483;-77
2022/10/08 06:16:08;;;;;;;15.73;11.93;;;;;;;;;;4950877;28;20037;-77
2022/10/08 06:18:36;;;;;;;16.45;13.52;;;;;;;;;;4963877;28;20038;-80
2022/10/08 06:21:21;;;;;;;13.15;11.23;;;;;;;;;;4963315;28;20102;-81
2022/10/08 06:23:54;;;;;;;13.60;11.60;;;;;;;;;;4943111;28;20095;-77
2022/10/08 06:26:22;;;;;;;13.88;11.27;;;;;;;;;;4963922;28;20026;-77
2022/10/08 06:28:48;;;;;;;12.38;11.07;;;;;;;;;;4947320;28;20066;-77
2022/10/08 06:31:15;;;;;;;14.45;12.98;;;;;;;;;;4950405;28;20031;-80
2022/10/08 06:33:43;;;;;;;13.85;11.77;;;;;;;;;;4948344;28;20061;-78
2022/10/08 06:36:15;;;;;;;13.93;11.55;;;;;;;;;;4963994;28;20081;-79
2022/10/08 06:38:41;;;;;;;12.70;11.32;;;;;;;;;;4951748;28;20042;-82
2022/10/08 06:41:08;;;;;;;14.75;13.25;;;;;;;;;;4957572;28;20491;-77
2022/10/08 06:43:34;;;;;;;14.13;12.30;;;;;;;;;;4948543;29;20396;-77
2022/10/08 06:46:05;;;;;;;13.88;12.48;;;;;;;;;;4938027;29;20075;-81
2022/10/08 06:48:31;;;;;;;17.20;14.35;;;;;;;;;;4967218;28;20539;-79
2022/10/08 06:51:03;;;;;;;14.80;13.30;;;;;;;;;;4959198;28;20053;-79
2022/10/08 06:53:29;;;;;;;16.13;13.05;;;;;;;;;;4957864;28;20105;-79
2022/10/08 06:55:56;;;;;;;12.80;11.27;;;;;;;;;;4967123;28;20145;-77
2022/10/08 06:58:22;;;;;;;15.00;12.40;;;;;;;;;;4962388;28;20067;-77
2022/10/08 07:00:49;;;;;;;13.18;11.77;;;;;;;;;;4971417;28;20093;-78
2022/10/08 07:03:15;;;;;;;17.35;14.68;;;;;;;;;;4957186;28;20114;-80
2022/10/08 07:05:42;;;;;;;14.95;13.18;;;;;;;;;;4957326;28;20030;-82
2022/10/08 07:08:08;;;;;;;13.15;11.75;;;;;;;;;;4951080;28;20138;-81
2022/10/08 07:10:34;;;;;;;14.38;11.60;;;;;;;;;;4953864;28;20055;-81
2022/10/08 07:13:00;;;;;;;16.88;11.70;;;;;;;;;;4956977;28;20034;-82
2022/10/08 07:15:27;;;;;;;15.07;11.57;;;;;;;;;;4957185;28;20082;-81
2022/10/08 07:17:53;;;;;;;14.15;10.90;;;;;;;;;;4957245;28;20023;-77
2022/10/08 07:20:20;;;;;;;10.25;8.93;;;;;;;;;;4956190;28;20034;-77
2022/10/08 07:22:46;;;;;;;10.18;9.05;;;;;;;;;;4957143;28;20081;-77
2022/10/08 07:25:12;;;;;;;14.80;11.65;;;;;;;;;;4975045;28;20034;-78
2022/10/08 07:27:38;;;;;;;14.70;10.98;;;;;;;;;;4957131;28;20019;-75
2022/10/08 07:30:05;;;;;;;10.15;8.35;;;;;;;;;;4956170;28;20043;-74
2022/10/08 07:32:31;;;;;;;15.30;11.77;;;;;;;;;;4953573;28;20030;-75
2022/10/08 07:34:57;;;;;;;10.73;8.82;;;;;;;;;;4962147;28;20059;-79
2022/10/08 07:37:23;;;;;;;12.68;10.70;;;;;;;;;;4946627;28;20934;-77
2022/10/08 07:39:49;;;;;;;10.70;9.57;;;;;;;;;;4963166;28;20050;-78
2022/10/08 07:42:15;;;;;;;11.75;10.52;;;;;;;;;;4945050;28;20041;-77
2022/10/08 07:44:41;;;;;;;14.40;12.05;;;;;;;;;;4947677;28;20019;-77
2022/10/08 07:47:08;;;;;;;16.00;13.60;;;;;;;;;;4946050;28;20445;-78
2022/10/08 07:49:34;;;;;;;17.92;15.30;;;;;;;;;;4943875;28;20054;-79
2022/10/08 07:52:00;;;;;;;15.75;12.85;;;;;;;;;;4950054;28;20504;-78
2022/10/08 07:54:26;;;;;;;18.85;15.30;;;;;;;;;;4944844;28;20074;-79
2022/10/08 07:56:52;;;;;;;18.27;15.20;;;;;;;;;;4941090;28;20485;-78
2022/10/08 07:59:18;;;;;;;14.57;13.15;;;;;;;;;;4939700;29;20445;-77
2022/10/08 08:01:44;;;;;;;13.45;12.05;;;;;;;;;;4953549;28;20050;-77
2022/10/08 08:04:11;;;;;;;16.38;13.38;;;;;;;;;;4939015;29;20051;-77
2022/10/08 08:06:41;;;;;;;18.40;16.35;;;;;;;;;;4936800;29;20031;-77
2022/10/08 08:09:13;;;;;;;16.98;14.77;;;;;;;;;;4954220;29;20055;-77
2022/10/08 08:11:39;;;;;;;18.50;15.07;;;;;;;;;;4954511;29;20099;-77
2022/10/08 08:14:06;;;;;;;16.38;14.70;;;;;;;;;;4937275;29;20445;-77
2022/10/08 08:16:32;;;;;;;15.05;13.45;;;;;;;;;;4937523;29;20027;-78
2022/10/08 08:18:59;;;;;;;16.27;13.95;;;;;;;;;;4937436;29;20122;-78
2022/10/08 08:21:27;;;;;;;13.00;11.63;;;;;;;;;;4937424;29;20030;-76
2022/10/08 08:23:54;;;;;;;15.90;14.27;;;;;;;;;;4937438;29;20042;-77
2022/10/08 08:26:20;;;;;;;13.32;11.85;;;;;;;;;;4937235;29;20023;-76
2022/10/08 08:28:50;;;;;;;13.63;12.18;;;;;;;;;;4937305;29;20031;-77
2022/10/08 08:31:17;;;;;;;14.98;13.30;;;;;;;;;;4956185;28;20035;-78
2022/10/08 08:33:46;;;;;;;14.57;13.07;;;;;;;;;;4940860;29;20051;-79
2022/10/08 08:36:12;;;;;;;14.20;12.75;;;;;;;;;;4940972;29;20037;-79
2022/10/08 08:38:39;;;;;;;16.60;14.60;;;;;;;;;;4940780;29;20027;-78
2022/10/08 08:41:08;;;;;;;17.90;15.80;;;;;;;;;;4940895;29;20034;-77
2022/10/08 08:43:34;;;;;;;17.25;15.43;;;;;;;;;;4941037;29;20023;-78
2022/10/08 08:46:01;;;;;;;19.95;13.60;;;;;;;;;;4940483;29;20067;-77
2022/10/08 08:48:31;;;;;;;13.32;11.88;;;;;;;;;;4957868;29;20031;-79
2022/10/08 08:50:58;;;;;;;17.80;15.05;;;;;;;;;;4942415;28;20507;-78
2022/10/08 08:53:24;;;;;;;17.67;14.52;;;;;;;;;;4957874;28;20117;-81
2022/10/08 08:55:55;;;;;;;14.60;13.00;;;;;;;;;;4943526;29;20089;-78
2022/10/08 08:58:33;;;;;;;17.17;13.90;;;;;;;;;;4938973;29;20039;-79
2022/10/08 09:01:03;;;;;;;12.35;10.98;;;;;;;;;;4939948;29;20051;-79
2022/10/08 09:03:33;;;;;;;17.55;14.13;;;;;;;;;;4940686;29;20524;-80
2022/10/08 09:06:02;;;;;;;17.02;13.45;;;;;;;;;;4959107;29;20051;-80
2022/10/08 09:08:33;;;;;;;15.48;13.00;;;;;;;;;;4942721;29;20035;-81
2022/10/08 09:11:03;;;;;;;12.23;9.23;;;;;;;;;;4957787;29;20039;-81
2022/10/08 09:13:37;;;;;;;12.38;9.35;;;;;;;;;;4939782;29;20030;-79
2022/10/08 09:16:03;;;;;;;9.13;6.63;;;;;;;;;;4939665;29;20027;-78
2022/10/08 09:18:29;;;;;;;10.90;7.40;;;;;;;;;;4939743;29;20162;-78
2022/10/08 09:20:56;;;;;;;8.82;4.40;;;;;;;;;;4939815;29;20500;-78
2022/10/08 09:23:23;;;;;;;12.40;7.25;;;;;;;;;;4957128;29;20120;-77
2022/10/08 09:25:52;;;;;;;11.82;8.02;;;;;;;;;;4939788;29;20034;-78
2022/10/08 09:28:38;;;;;;;7.35;4.43;;;;;;;;;;4956874;29;20066;-79
2022/10/08 09:31:13;;;;;;;11.23;6.55;;;;;;;;;;4940103;29;20039;-79
2022/10/08 09:33:39;;;;;;;6.10;4.38;;;;;;;;;;4957077;29;20024;-78
2022/10/08 09:36:05;;;;;;;9.10;5.70;;;;;;;;;;4939666;29;20481;-78
2022/10/08 09:38:36;;;;;;;10.70;5.68;;;;;;;;;;4956798;29;20473;-76
2022/10/08 09:41:06;;;;;;;7.05;4.10;;;;;;;;;;4939524;29;20031;-77
2022/10/08 09:43:34;;;;;;;10.38;6.95;;;;;;;;;;4941140;28;20031;-78
2022/10/08 09:46:03;;;;;;;7.18;4.28;;;;;;;;;;4961724;28;20031;-79
2022/10/08 09:48:30;;;;;;;6.25;5.22;;;;;;;;;;4938560;29;20122;-79
2022/10/08 09:51:04;;;;;;;7.78;5.40;;;;;;;;;;4955701;29;20055;-78
2022/10/08 09:53:39;;;;;;;8.10;4.60;;;;;;;;;;4956605;29;20102;-77
2022/10/08 09:56:07;;;;;;;10.50;7.05;;;;;;;;;;4939408;29;20027;-79
2022/10/08 09:58:34;;;;;;;10.73;4.72;;;;;;;;;;4939132;29;20059;-77
2022/10/08 10:01:03;;;;;;;10.45;8.02;;;;;;;;;;4956584;29;20121;-78
2022/10/08 10:03:30;;;;;;;18.98;6.85;;;;;;;;;;4939264;29;20031;-79
2022/10/08 10:05:58;;;;;;;7.22;6.15;;;;;;;;;;4939185;29;20027;-79
2022/10/08 10:08:44;;;;;;;9.98;6.82;;;;;;;;;;4956014;29;20074;-79
2022/10/08 10:11:29;;;;;;;11.38;7.85;;;;;;;;;;4956283;29;20472;-79
2022/10/08 10:13:57;;;;;;;9.88;7.35;;;;;;;;;;4939004;29;20041;-75
2022/10/08 10:16:25;;;;;;;10.77;6.60;;;;;;;;;;4938886;29;20091;-78
2022/10/08 10:18:51;;;;;;;8.77;6.15;;;;;;;;;;4938714;29;20107;-77
2022/10/08 10:21:37;;;;;;;9.25;5.50;;;;;;;;;;4938990;29;20030;-78
2022/10/08 10:24:08;;;;;;;11.38;6.00;;;;;;;;;;4938827;29;20063;-78
2022/10/08 10:26:36;;;;;;;7.07;4.55;;;;;;;;;;4955953;29;20036;-78
2022/10/08 10:29:15;;;;;;;6.32;4.18;;;;;;;;;;4938762;29;20051;-78
2022/10/08 10:31:41;;;;;;;8.98;6.43;;;;;;;;;;4938660;29;20094;-78
2022/10/08 10:34:13;;;;;;;6.78;5.32;;;;;;;;;;4938730;29;20118;-79
2022/10/08 10:36:42;;;;;;;7.57;6.45;;;;;;;;;;4938656;29;20035;-78
2022/10/08 10:39:15;;;;;;;5.32;4.82;;;;;;;;;;4938178;29;20034;-78
2022/10/08 10:41:44;;;;;;;11.40;6.65;;;;;;;;;;4933677;29;20043;-78
2022/10/08 10:44:11;;;;;;;7.95;5.35;;;;;;;;;;4934600;29;20028;-76
2022/10/08 10:46:48;;;;;;;11.13;7.55;;;;;;;;;;4919523;29;20038;-75
2022/10/08 10:49:17;;;;;;;8.43;6.28;;;;;;;;;;4949297;28;20519;-76
2022/10/08 10:51:49;;;;;;;9.88;7.18;;;;;;;;;;4937776;29;20031;-77
2022/10/08 10:54:22;;;;;;;9.38;6.45;;;;;;;;;;4938102;29;20404;-77
2022/10/08 10:56:48;;;;;;;;;;;;;;;;;;4938608;29;20066;-76
2022/10/08 10:59:29;;;;;;;9.57;8.13;;;;;;;;;;4938205;29;19934;-78
2022/10/08 11:02:14;;;;;;;11.20;6.60;;;;;;;;;;4938255;29;20031;-77
2022/10/08 11:04:56;;;;;;;10.30;8.30;;;;;;;;;;4937960;29;20034;-76
2022/10/08 11:07:40;;;;;;;11.85;9.23;;;;;;;;;;4922274;29;20034;-73
2022/10/08 11:10:07;;;;;;;11.70;8.32;;;;;;;;;;4955157;29;20035;-79
2022/10/08 11:12:37;;;;;;;7.85;6.18;;;;;;;;;;4939014;29;20030;-84
2022/10/08 11:15:06;;;;;;;8.65;6.50;;;;;;;;;;4954657;29;20035;-81
2022/10/08 11:17:50;;;;;;;6.32;5.50;;;;;;;;;;4938650;29;20031;-83
2022/10/08 11:20:19;;;;;;;11.88;6.80;;;;;;;;;;4937419;28;20067;-77
2022/10/08 11:22:55;;;;;;;10.88;5.70;;;;;;;;;;4959235;28;20031;-77
2022/10/08 11:25:27;;;;;;;7.72;5.97;;;;;;;;;;4944962;28;20480;-78
2022/10/08 11:28:06;;;;;;;9.63;6.55;;;;;;;;;;4942493;28;20506;-79
2022/10/08 11:30:38;;;;;;;10.07;6.05;;;;;;;;;;4955981;28;20078;-77
2022/10/08 11:33:04;;;;;;;;;;;;;;;;;;4937442;29;20032;-81
2022/10/08 11:35:33;;;;;;;8.73;6.53;;;;;;;;;;4937074;29;20338;-79
2022/10/08 11:38:15;;;;;;;8.82;4.60;;;;;;;;;;4937181;29;20027;-74
2022/10/08 11:40:41;;;;;;;9.68;6.20;;;;;;;;;;4938423;29;20028;-80
2022/10/08 11:43:13;;;;;;;11.27;5.18;;;;;;;;;;4937957;29;20114;-76
2022/10/08 11:45:40;;;;;;;10.77;6.43;;;;;;;;;;4937533;29;20032;-77
2022/10/08 11:48:25;;;;;;;8.07;5.35;;;;;;;;;;4955268;29;20031;-77
2022/10/08 11:50:51;;;;;;;9.38;7.05;;;;;;;;;;4960376;28;20429;-85
2022/10/08 11:53:21;;;;;;;11.38;7.50;;;;;;;;;;4947928;28;20081;-76
2022/10/08 11:55:52;;;;;;;9.88;7.20;;;;;;;;;;4960513;28;20030;-76
2022/10/08 11:58:25;;;;;;;11.38;6.97;;;;;;;;;;4957510;28;20031;-78
2022/10/08 12:00:52;;;;;;;9.82;7.78;;;;;;;;;;4942036;28;20031;-77
2022/10/08 12:03:30;;;;;;;8.68;7.78;;;;;;;;;;4967321;28;20038;-77
2022/10/08 12:06:14;;;;;;;7.53;6.70;;;;;;;;;;4964398;28;20023;-75
2022/10/08 12:08:49;;;;;;;14.13;8.85;;;;;;;;;;4965367;28;20030;-75
2022/10/08 12:11:34;;;;;;;11.35;9.40;;;;;;;;;;4975115;28;20552;-73
2022/10/08 12:14:13;;;;;;;14.07;9.75;;;;;;;;;;4972588;28;20423;-77
2022/10/08 12:16:48;;;;;;;12.20;10.60;;;;;;;;;;4959094;28;20027;-77
2022/10/08 12:19:33;;;;;;;12.73;9.25;;;;;;;;;;4940149;28;20038;-81
2022/10/08 12:22:02;;;;;;;16.75;11.32;;;;;;;;;;4939941;29;20122;-83
2022/10/08 12:24:37;;;;;;;13.25;10.65;;;;;;;;;;4941105;28;20034;-80
2022/10/08 12:27:22;;;;;;;11.07;9.95;;;;;;;;;;4954503;28;20034;-76
2022/10/08 12:30:06;;;;;;;21.77;13.00;;;;;;;;;;4977366;28;20050;-74
2022/10/08 12:32:50;;;;;;;13.95;9.90;;;;;;;;;;4959868;28;20077;-75
2022/10/08 12:35:21;;;;;;;13.40;9.73;;;;;;;;;;4960122;28;20022;-75
2022/10/08 12:37:50;;;;;;;12.63;8.45;;;;;;;;;;4959866;28;20030;-75
2022/10/08 12:40:25;;;;;;;11.27;9.52;;;;;;;;;;4960117;28;20031;-74
2022/10/08 12:42:56;;;;;;;9.10;8.18;;;;;;;;;;4959739;28;20027;-79
2022/10/08 12:45:25;;;;;;;10.75;7.07;;;;;;;;;;4957948;28;20050;-80
2022/10/08 12:48:01;;;;;;;12.50;7.35;;;;;;;;;;4940473;29;20571;-80
2022/10/08 12:50:27;;;;;;;10.45;8.23;;;;;;;;;;4940121;29;20057;-76
2022/10/08 12:52:53;;;;;;;19.02;10.00;;;;;;;;;;4940380;29;20031;-75
2022/10/08 12:55:22;;;;;;;12.43;8.90;;;;;;;;;;4940426;29;20034;-78
2022/10/08 12:57:49;;;;;;;11.15;8.80;;;;;;;;;;4940413;29;20487;-76
2022/10/08 13:00:18;;;;;;;12.25;7.97;;;;;;;;;;4957569;29;20038;-77
2022/10/08 13:02:57;;;;;;;8.57;7.07;;;;;;;;;;4940191;29;20023;-77
2022/10/08 13:05:26;;;;;;;7.88;7.07;;;;;;;;;;4940433;29;20038;-77
2022/10/08 13:07:52;;;;;;;10.23;8.25;;;;;;;;;;4940208;29;20027;-76
2022/10/08 13:10:20;;;;;;;9.60;8.27;;;;;;;;;;4940071;29;20047;-77
2022/10/08 13:13:03;;;;;;;9.25;7.60;;;;;;;;;;4940203;29;20053;-73
2022/10/08 13:15:29;;;;;;;10.98;7.32;;;;;;;;;;4939944;29;20424;-73
2022/10/08 13:17:56;;;;;;;9.40;7.07;;;;;;;;;;4939928;29;20039;-73
2022/10/08 13:20:23;;;;;;;11.38;8.65;;;;;;;;;;4957044;29;20065;-73
2022/10/08 13:22:49;;;;;;;10.48;7.97;;;;;;;;;;4940060;29;20460;-74
2022/10/08 13:25:34;;;;;;;10.15;8.93;;;;;;;;;;4939542;29;20397;-75
2022/10/08 13:28:10;;;;;;;12.30;7.82;;;;;;;;;;4939574;29;20038;-71
2022/10/08 13:30:37;;;;;;;11.02;7.00;;;;;;;;;;4939749;29;20115;-74
2022/10/08 13:33:04;;;;;;;8.15;6.32;;;;;;;;;;4939750;29;20023;-83
2022/10/08 13:35:32;;;;;;;22.30;8.70;;;;;;;;;;4939776;29;20381;-74
2022/10/08 13:37:59;;;;;;;10.05;8.18;;;;;;;;;;4939627;29;20023;-73
2022/10/08 13:40:25;;;;;;;10.00;7.00;;;;;;;;;;4939512;29;20046;-74
2022/10/08 13:42:53;;;;;;;7.72;5.60;;;;;;;;;;4939185;29;20028;-78
2022/10/08 13:45:23;;;;;;;9.27;7.82;;;;;;;;;;4956810;29;20034;-80
2022/10/08 13:47:49;;;;;;;11.82;8.57;;;;;;;;;;4939380;29;20388;-79
2022/10/08 13:50:16;;;;;;;8.95;7.47;;;;;;;;;;4939064;29;20058;-79
2022/10/08 13:52:46;;;;;;;8.63;7.35;;;;;;;;;;4939032;29;20027;-82
2022/10/08 13:55:35;;;;;;;10.50;7.80;;;;;;;;;;4939537;29;20042;-78
2022/10/08 13:58:03;;;;;;;11.05;8.70;;;;;;;;;;4932126;29;20031;-81
2022/10/08 14:00:30;;;;;;;9.93;7.38;;;;;;;;;;4956605;29;20023;-80
2022/10/08 14:02:56;;;;;;;10.02;7.15;;;;;;;;;;4939441;29;20063;-80
2022/10/08 14:05:23;;;;;;;11.70;9.70;;;;;;;;;;4938994;29;20058;-76
2022/10/08 14:07:51;;;;;;;10.77;9.45;;;;;;;;;;4939209;29;20393;-76
2022/10/08 14:10:18;;;;;;;9.07;8.18;;;;;;;;;;4938970;29;20035;-74
2022/10/08 14:12:44;;;;;;;11.60;9.05;;;;;;;;;;4939199;29;20049;-74
2022/10/08 14:15:15;;;;;;;11.05;9.50;;;;;;;;;;4956225;29;20035;-73
2022/10/08 14:17:41;;;;;;;11.15;9.95;;;;;;;;;;4938811;29;20023;-75
2022/10/08 14:20:07;;;;;;;9.63;8.00;;;;;;;;;;4938929;29;20027;-74
2022/10/08 14:22:37;;;;;;;9.55;8.55;;;;;;;;;;4938677;29;20451;-75
2022/10/08 14:25:15;;;;;;;9.43;7.53;;;;;;;;;;4938694;29;20485;-74
2022/10/08 14:27:41;;;;;;;12.68;8.50;;;;;;;;;;4938802;29;20034;-77
2022/10/08 14:30:08;;;;;;;11.48;8.65;;;;;;;;;;4937896;29;20129;-76
2022/10/08 14:32:35;;;;;;;14.30;11.00;;;;;;;;;;4945020;28;20027;-77
2022/10/08 14:35:01;;;;;;;11.00;9.82;;;;;;;;;;4957884;28;20042;-75
2022/10/08 14:37:27;;;;;;;11.02;8.30;;;;;;;;;;4957868;28;20027;-74
2022/10/08 14:39:53;;;;;;;10.15;9.10;;;;;;;;;;4957823;28;20027;-75
2022/10/08 14:42:20;;;;;;;9.73;8.68;;;;;;;;;;4957587;28;20031;-77
2022/10/08 14:44:46;;;;;;;9.45;8.48;;;;;;;;;;4957595;28;20488;-78
2022/10/08 14:47:13;;;;;;;10.93;8.65;;;;;;;;;;4974973;28;20065;-81
2022/10/08 14:49:39;;;;;;;12.38;9.73;;;;;;;;;;4957532;28;20050;-80
2022/10/08 14:52:05;;;;;;;10.90;9.65;;;;;;;;;;4957315;28;20026;-75